sensor_id;sensor_type;location;lat;lon;timestamp;pressure;altitude;pressure_sealevel;temperature;humidity
23281;BME280;11809;56.390;-3.266;2023-07-28T00:02:10;99736.69;;;19.69;68.18
23281;BME280;11809;56.390;-3.266;2023-07-28T00:04:37;99727.00;;;19.68;68.35
23281;BME280;11809;56.390;-3.266;2023-07-28T00:07:05;99735.97;;;19.67;68.21
23281;BME280;11809;56.390;-3.266;2023-07-28T00:09:32;99729.97;;;19.65;68.33
23281;BME280;11809;56.390;-3.266;2023-07-28T00:12:00;99745.09;;;19.65;68.57
23281;BME280;11809;56.390;-3.266;2023-07-28T00:14:28;99735.56;;;19.62;68.30
23281;BME280;11809;56.390;-3.266;2023-07-28T00:16:56;99734.31;;;19.57;68.50
23281;BME280;11809;56.390;-3.266;2023-07-28T00:19:23;99744.13;;;19.56;68.38
23281;BME280;11809;56.390;-3.266;2023-07-28T00:21:51;99736.28;;;19.55;68.39
23281;BME280;11809;56.390;-3.266;2023-07-28T00:24:18;99735.72;;;19.51;68.42
23281;BME280;11809;56.390;-3.266;2023-07-28T00:26:45;99740.06;;;19.52;68.51
23281;BME280;11809;56.390;-3.266;2023-07-28T00:29:12;99737.56;;;19.51;68.44
23281;BME280;11809;56.390;-3.266;2023-07-28T00:31:39;99735.00;;;19.49;68.50
23281;BME280;11809;56.390;-3.266;2023-07-28T00:34:06;99730.66;;;19.48;68.28
23281;BME280;11809;56.390;-3.266;2023-07-28T00:36:33;99729.84;;;19.48;68.33
23281;BME280;11809;56.390;-3.266;2023-07-28T00:39:01;99732.34;;;19.49;68.33
23281;BME280;11809;56.390;-3.266;2023-07-28T00:41:28;99735.16;;;19.48;68.13
23281;BME280;11809;56.390;-3.266;2023-07-28T00:43:55;99734.44;;;19.46;68.27
23281;BME280;11809;56.390;-3.266;2023-07-28T00:46:22;99738.94;;;19.45;68.27
23281;BME280;11809;56.390;-3.266;2023-07-28T00:48:49;99733.63;;;19.45;68.24
23281;BME280;11809;56.390;-3.266;2023-07-28T00:51:16;99738.38;;;19.42;68.22
23281;BME280;11809;56.390;-3.266;2023-07-28T00:53:44;99742.16;;;19.39;68.35
23281;BME280;11809;56.390;-3.266;2023-07-28T00:56:12;99740.47;;;19.38;68.31
23281;BME280;11809;56.390;-3.266;2023-07-28T00:58:39;99747.75;;;19.36;68.36
23281;BME280;11809;56.390;-3.266;2023-07-28T01:01:06;99751.25;;;19.36;68.57
23281;BME280;11809;56.390;-3.266;2023-07-28T01:03:33;99750.41;;;19.36;68.63
23281;BME280;11809;56.390;-3.266;2023-07-28T01:09:16;99745.63;;;19.30;68.59
23281;BME280;11809;56.390;-3.266;2023-07-28T01:11:55;99742.84;;;19.31;68.59
23281;BME280;11809;56.390;-3.266;2023-07-28T01:14:22;99737.63;;;19.30;68.62
23281;BME280;11809;56.390;-3.266;2023-07-28T01:16:50;99742.25;;;19.28;68.83
23281;BME280;11809;56.390;-3.266;2023-07-28T01:19:19;99740.56;;;19.27;68.49
23281;BME280;11809;56.390;-3.266;2023-07-28T01:21:54;99743.97;;;19.29;68.79
23281;BME280;11809;56.390;-3.266;2023-07-28T01:24:28;99741.56;;;19.26;68.36
23281;BME280;11809;56.390;-3.266;2023-07-28T01:26:56;99741.41;;;19.27;68.45
23281;BME280;11809;56.390;-3.266;2023-07-28T01:29:24;99736.09;;;19.27;68.51
23281;BME280;11809;56.390;-3.266;2023-07-28T01:31:51;99730.47;;;19.21;68.70
23281;BME280;11809;56.390;-3.266;2023-07-28T01:34:19;99729.63;;;19.20;68.82
23281;BME280;11809;56.390;-3.266;2023-07-28T01:36:46;99721.50;;;19.22;68.73
23281;BME280;11809;56.390;-3.266;2023-07-28T01:39:13;99727.09;;;19.19;68.41
23281;BME280;11809;56.390;-3.266;2023-07-28T01:41:40;99731.59;;;19.18;68.88
23281;BME280;11809;56.390;-3.266;2023-07-28T01:44:10;99736.09;;;19.18;68.58
23281;BME280;11809;56.390;-3.266;2023-07-28T01:46:38;99734.38;;;19.17;69.05
23281;BME280;11809;56.390;-3.266;2023-07-28T01:49:06;99732.00;;;19.14;68.90
23281;BME280;11809;56.390;-3.266;2023-07-28T01:51:33;99739.97;;;19.14;68.72
23281;BME280;11809;56.390;-3.266;2023-07-28T01:54:00;99741.69;;;19.15;68.72
23281;BME280;11809;56.390;-3.266;2023-07-28T01:56:27;99739.16;;;19.13;68.71
23281;BME280;11809;56.390;-3.266;2023-07-28T01:58:54;99740.84;;;19.14;68.53
23281;BME280;11809;56.390;-3.266;2023-07-28T02:01:21;99741.69;;;19.15;68.70
23281;BME280;11809;56.390;-3.266;2023-07-28T02:03:48;99739.97;;;19.14;68.90
23281;BME280;11809;56.390;-3.266;2023-07-28T02:06:15;99750.91;;;19.11;68.76
23281;BME280;11809;56.390;-3.266;2023-07-28T02:08:42;99746.69;;;19.08;68.62
23281;BME280;11809;56.390;-3.266;2023-07-28T02:11:09;99740.56;;;19.08;68.56
23281;BME280;11809;56.390;-3.266;2023-07-28T02:13:36;99744.19;;;19.07;68.49
23281;BME280;11809;56.390;-3.266;2023-07-28T02:16:03;99739.00;;;19.05;68.90
23281;BME280;11809;56.390;-3.266;2023-07-28T02:18:30;99743.50;;;19.05;68.76
23281;BME280;11809;56.390;-3.266;2023-07-28T02:20:57;99743.50;;;19.05;68.45
23281;BME280;11809;56.390;-3.266;2023-07-28T02:23:24;99743.34;;;19.06;68.72
23281;BME280;11809;56.390;-3.266;2023-07-28T02:25:51;99739.00;;;19.05;68.76
23281;BME280;11809;56.390;-3.266;2023-07-28T02:28:18;99746.41;;;19.02;68.79
23281;BME280;11809;56.390;-3.266;2023-07-28T02:30:45;99750.31;;;18.98;68.58
23281;BME280;11809;56.390;-3.266;2023-07-28T02:33:12;99752.72;;;19.01;68.71
23281;BME280;11809;56.390;-3.266;2023-07-28T02:35:39;99758.03;;;19.01;68.67
23281;BME280;11809;56.390;-3.266;2023-07-28T02:38:06;99760.00;;;18.99;68.85
23281;BME280;11809;56.390;-3.266;2023-07-28T02:40:34;99758.03;;;19.01;68.63
23281;BME280;11809;56.390;-3.266;2023-07-28T02:43:01;99760.97;;;18.98;68.76
23281;BME280;11809;56.390;-3.266;2023-07-28T02:45:28;99751.59;;;18.94;68.52
23281;BME280;11809;56.390;-3.266;2023-07-28T02:47:55;99760.00;;;18.99;68.74
23281;BME280;11809;56.390;-3.266;2023-07-28T02:50:22;99759.03;;;19.00;68.70
23281;BME280;11809;56.390;-3.266;2023-07-28T02:52:50;99760.00;;;18.99;68.56
23281;BME280;11809;56.390;-3.266;2023-07-28T02:55:17;99754.94;;;18.96;68.71
23281;BME280;11809;56.390;-3.266;2023-07-28T02:57:44;99755.94;;;18.95;68.67
23281;BME280;11809;56.390;-3.266;2023-07-28T03:00:11;99751.59;;;18.94;68.45
23281;BME280;11809;56.390;-3.266;2023-07-28T03:02:38;99754.25;;;18.94;68.55
23281;BME280;11809;56.390;-3.266;2023-07-28T03:05:06;99754.25;;;18.94;68.63
23281;BME280;11809;56.390;-3.266;2023-07-28T03:07:33;99761.53;;;18.92;68.60
23281;BME280;11809;56.390;-3.266;2023-07-28T03:10:00;99748.34;;;18.90;68.39
23281;BME280;11809;56.390;-3.266;2023-07-28T03:12:27;99736.56;;;18.93;68.56
23281;BME280;11809;56.390;-3.266;2023-07-28T03:14:54;99724.25;;;18.92;68.73
23281;BME280;11809;56.390;-3.266;2023-07-28T03:17:21;99720.16;;;18.88;68.69
23281;BME280;11809;56.390;-3.266;2023-07-28T03:19:48;99724.94;;;18.84;68.92
23281;BME280;11809;56.390;-3.266;2023-07-28T03:22:15;99727.72;;;18.83;69.05
23281;BME280;11809;56.390;-3.266;2023-07-28T03:24:42;99719.75;;;18.83;69.05
23281;BME280;11809;56.390;-3.266;2023-07-28T03:27:09;99723.38;;;18.82;68.69
23281;BME280;11809;56.390;-3.266;2023-07-28T03:29:36;99726.75;;;18.84;68.90
23281;BME280;11809;56.390;-3.266;2023-07-28T03:32:03;99716.81;;;18.86;68.81
23281;BME280;11809;56.390;-3.266;2023-07-28T03:34:30;99718.91;;;18.82;68.94
23281;BME280;11809;56.390;-3.266;2023-07-28T03:36:57;99731.25;;;18.83;68.76
23281;BME280;11809;56.390;-3.266;2023-07-28T03:39:24;99728.56;;;18.83;68.50
23281;BME280;11809;56.390;-3.266;2023-07-28T03:41:51;99725.34;;;18.80;68.96
23281;BME280;11809;56.390;-3.266;2023-07-28T03:44:18;99721.97;;;18.77;68.94
23281;BME280;11809;56.390;-3.266;2023-07-28T03:46:46;99727.56;;;18.74;68.99
23281;BME280;11809;56.390;-3.266;2023-07-28T03:49:13;99731.19;;;18.73;68.94
23281;BME280;11809;56.390;-3.266;2023-07-28T03:51:40;99727.81;;;18.71;68.93
23281;BME280;11809;56.390;-3.266;2023-07-28T03:54:07;99728.69;;;18.72;69.03
23281;BME280;11809;56.390;-3.266;2023-07-28T03:56:35;99726.16;;;18.70;69.25
23281;BME280;11809;56.390;-3.266;2023-07-28T03:59:02;99729.78;;;18.69;68.80
23281;BME280;11809;56.390;-3.266;2023-07-28T04:01:29;99723.63;;;18.69;69.17
23281;BME280;11809;56.390;-3.266;2023-07-28T04:03:57;99728.09;;;18.68;68.81
23281;BME280;11809;56.390;-3.266;2023-07-28T04:09:09;99722.91;;;18.67;69.16
23281;BME280;11809;56.390;-3.266;2023-07-28T04:11:36;99744.06;;;18.68;69.11
23281;BME280;11809;56.390;-3.266;2023-07-28T04:14:04;99744.38;;;18.65;68.88
23281;BME280;11809;56.390;-3.266;2023-07-28T04:16:31;99732.03;;;18.64;68.92
23281;BME280;11809;56.390;-3.266;2023-07-28T04:19:00;99733.84;;;18.64;69.14
23281;BME280;11809;56.390;-3.266;2023-07-28T04:21:27;99734.69;;;18.64;69.13
23281;BME280;11809;56.390;-3.266;2023-07-28T04:23:54;99739.31;;;18.62;69.33
23281;BME280;11809;56.390;-3.266;2023-07-28T04:26:23;99737.34;;;18.64;68.92
23281;BME280;11809;56.390;-3.266;2023-07-28T04:28:50;99730.75;;;18.68;68.82
23281;BME280;11809;56.390;-3.266;2023-07-28T04:31:17;99738.03;;;18.66;67.79
23281;BME280;11809;56.390;-3.266;2023-07-28T04:33:44;99728.81;;;18.70;68.62
23281;BME280;11809;56.390;-3.266;2023-07-28T04:36:11;99725.16;;;18.71;68.48
23281;BME280;11809;56.390;-3.266;2023-07-28T04:38:38;99723.50;;;18.70;68.68
23281;BME280;11809;56.390;-3.266;2023-07-28T04:41:05;99722.78;;;18.68;68.43
23281;BME280;11809;56.390;-3.266;2023-07-28T04:43:32;99726.44;;;18.67;68.80
23281;BME280;11809;56.390;-3.266;2023-07-28T04:45:59;99726.44;;;18.67;68.55
23281;BME280;11809;56.390;-3.266;2023-07-28T04:48:27;99731.06;;;18.65;68.64
23281;BME280;11809;56.390;-3.266;2023-07-28T04:50:54;99727.53;;;18.65;68.83
23281;BME280;11809;56.390;-3.266;2023-07-28T04:53:21;99731.06;;;18.65;68.65
23281;BME280;11809;56.390;-3.266;2023-07-28T04:55:48;99730.31;;;18.63;69.01
23281;BME280;11809;56.390;-3.266;2023-07-28T04:58:15;99723.34;;;18.62;68.87
23281;BME280;11809;56.390;-3.266;2023-07-28T05:00:42;99723.34;;;18.62;68.90
23281;BME280;11809;56.390;-3.266;2023-07-28T05:03:09;99722.06;;;18.66;69.10
23281;BME280;11809;56.390;-3.266;2023-07-28T05:05:36;99727.56;;;18.74;69.18
23281;BME280;11809;56.390;-3.266;2023-07-28T05:08:03;99719.16;;;18.79;69.33
23281;BME280;11809;56.390;-3.266;2023-07-28T05:10:31;99713.44;;;18.84;69.57
23281;BME280;11809;56.390;-3.266;2023-07-28T05:12:58;99714.00;;;18.87;69.65
23281;BME280;11809;56.390;-3.266;2023-07-28T05:15:25;99710.09;;;18.91;69.30
23281;BME280;11809;56.390;-3.266;2023-07-28T05:17:52;99715.28;;;18.93;69.43
23281;BME280;11809;56.390;-3.266;2023-07-28T05:20:19;99711.66;;;18.94;69.41
23281;BME280;11809;56.390;-3.266;2023-07-28T05:22:46;99710.69;;;18.95;69.58
23281;BME280;11809;56.390;-3.266;2023-07-28T05:25:13;99711.38;;;18.97;69.51
23281;BME280;11809;56.390;-3.266;2023-07-28T05:27:40;99710.25;;;18.99;69.58
23281;BME280;11809;56.390;-3.266;2023-07-28T05:30:07;99715.16;;;19.04;69.34
23281;BME280;11809;56.390;-3.266;2023-07-28T05:32:34;99721.63;;;19.11;69.21
23281;BME280;11809;56.390;-3.266;2023-07-28T05:35:02;99723.31;;;19.12;69.33
23281;BME280;11809;56.390;-3.266;2023-07-28T05:37:29;99724.44;;;19.09;69.22
23281;BME280;11809;56.390;-3.266;2023-07-28T05:39:56;99724.84;;;19.05;69.16
23281;BME280;11809;56.390;-3.266;2023-07-28T05:42:23;99728.47;;;19.04;69.41
23281;BME280;11809;56.390;-3.266;2023-07-28T05:44:51;99719.09;;;19.09;69.28
23281;BME280;11809;56.390;-3.266;2023-07-28T05:47:19;99717.56;;;19.07;69.22
23281;BME280;11809;56.390;-3.266;2023-07-28T05:49:47;99715.31;;;19.02;69.27
23281;BME280;11809;56.390;-3.266;2023-07-28T05:52:14;99721.50;;;19.03;69.05
23281;BME280;11809;56.390;-3.266;2023-07-28T05:54:41;99720.50;;;19.04;69.14
23281;BME280;11809;56.390;-3.266;2023-07-28T05:57:08;99722.19;;;19.05;68.97
23281;BME280;11809;56.390;-3.266;2023-07-28T05:59:36;99722.19;;;19.05;68.79
23281;BME280;11809;56.390;-3.266;2023-07-28T06:02:03;99731.84;;;19.06;69.03
23281;BME280;11809;56.390;-3.266;2023-07-28T06:04:30;99732.25;;;19.11;68.87
23281;BME280;11809;56.390;-3.266;2023-07-28T06:06:57;99732.41;;;19.09;68.30
23281;BME280;11809;56.390;-3.266;2023-07-28T06:09:24;99730.72;;;19.08;68.44
23281;BME280;11809;56.390;-3.266;2023-07-28T06:11:52;99732.56;;;19.08;68.57
23281;BME280;11809;56.390;-3.266;2023-07-28T06:14:19;99728.06;;;19.08;68.13
23281;BME280;11809;56.390;-3.266;2023-07-28T06:17:08;99731.56;;;19.09;68.12
23281;BME280;11809;56.390;-3.266;2023-07-28T06:19:36;99725.97;;;19.12;68.06
23281;BME280;11809;56.390;-3.266;2023-07-28T06:22:03;99728.91;;;19.09;67.87
23281;BME280;11809;56.390;-3.266;2023-07-28T06:24:31;99733.84;;;19.13;68.67
23281;BME280;11809;56.390;-3.266;2023-07-28T06:26:58;99732.84;;;19.14;68.23
23281;BME280;11809;56.390;-3.266;2023-07-28T06:29:26;99727.25;;;19.17;68.57
23281;BME280;11809;56.390;-3.266;2023-07-28T06:31:53;99725.13;;;19.11;68.27
23281;BME280;11809;56.390;-3.266;2023-07-28T06:34:20;99716.72;;;19.06;68.69
23281;BME280;11809;56.390;-3.266;2023-07-28T06:36:47;99725.81;;;19.04;68.86
23281;BME280;11809;56.390;-3.266;2023-07-28T06:39:14;99721.50;;;19.03;69.13
23281;BME280;11809;56.390;-3.266;2023-07-28T06:41:41;99717.25;;;19.00;69.12
23281;BME280;11809;56.390;-3.266;2023-07-28T06:44:08;99728.75;;;19.01;69.27
23281;BME280;11809;56.390;-3.266;2023-07-28T06:46:36;99733.22;;;19.00;69.26
23281;BME280;11809;56.390;-3.266;2023-07-28T06:49:03;99738.69;;;18.99;69.12
23281;BME280;11809;56.390;-3.266;2023-07-28T06:51:30;99736.19;;;18.97;69.00
23281;BME280;11809;56.390;-3.266;2023-07-28T06:53:58;99734.50;;;18.96;68.95
23281;BME280;11809;56.390;-3.266;2023-07-28T06:56:25;99731.97;;;18.95;68.88
23281;BME280;11809;56.390;-3.266;2023-07-28T06:58:52;99731.25;;;18.93;68.98
23281;BME280;11809;56.390;-3.266;2023-07-28T07:01:39;99741.22;;;18.91;68.83
23281;BME280;11809;56.390;-3.266;2023-07-28T07:04:06;99736.03;;;18.89;68.83
23281;BME280;11809;56.390;-3.266;2023-07-28T07:06:33;99735.03;;;18.90;69.21
23281;BME280;11809;56.390;-3.266;2023-07-28T07:09:00;99740.34;;;18.90;69.25
23281;BME280;11809;56.390;-3.266;2023-07-28T07:11:27;99736.16;;;18.88;69.30
23281;BME280;11809;56.390;-3.266;2023-07-28T07:13:54;99733.63;;;18.86;69.66
23281;BME280;11809;56.390;-3.266;2023-07-28T07:16:23;99738.09;;;18.86;69.42
23281;BME280;11809;56.390;-3.266;2023-07-28T07:18:53;99741.47;;;18.88;69.64
23281;BME280;11809;56.390;-3.266;2023-07-28T07:21:21;99741.47;;;18.88;69.61
23281;BME280;11809;56.390;-3.266;2023-07-28T07:23:48;99741.47;;;18.88;69.87
23281;BME280;11809;56.390;-3.266;2023-07-28T07:26:15;99737.97;;;18.87;69.58
23281;BME280;11809;56.390;-3.266;2023-07-28T07:28:42;99739.81;;;18.87;69.65
23281;BME280;11809;56.390;-3.266;2023-07-28T07:31:13;99735.44;;;18.86;69.89
23281;BME280;11809;56.390;-3.266;2023-07-28T07:33:41;99745.13;;;18.87;69.93
23281;BME280;11809;56.390;-3.266;2023-07-28T07:36:17;99735.44;;;18.86;70.10
23281;BME280;11809;56.390;-3.266;2023-07-28T07:38:45;99738.09;;;18.86;70.50
23281;BME280;11809;56.390;-3.266;2023-07-28T07:41:21;99736.28;;;18.86;69.93
23281;BME280;11809;56.390;-3.266;2023-07-28T07:43:53;99738.09;;;18.86;70.00
23281;BME280;11809;56.390;-3.266;2023-07-28T07:46:21;99744.28;;;18.86;70.17
23281;BME280;11809;56.390;-3.266;2023-07-28T07:48:49;99739.81;;;18.87;70.22
23281;BME280;11809;56.390;-3.266;2023-07-28T07:51:16;99747.50;;;18.90;70.09
23281;BME280;11809;56.390;-3.266;2023-07-28T07:53:44;99735.19;;;18.89;69.91
23281;BME280;11809;56.390;-3.266;2023-07-28T07:56:11;99749.19;;;18.91;70.07
23281;BME280;11809;56.390;-3.266;2023-07-28T07:58:38;99747.50;;;18.90;70.06
23281;BME280;11809;56.390;-3.266;2023-07-28T08:01:05;99745.81;;;18.89;70.15
23281;BME280;11809;56.390;-3.266;2023-07-28T08:03:33;99747.50;;;18.90;70.30
23281;BME280;11809;56.390;-3.266;2023-07-28T08:06:00;99758.16;;;18.90;70.19
23281;BME280;11809;56.390;-3.266;2023-07-28T08:08:28;99757.19;;;18.91;70.09
23281;BME280;11809;56.390;-3.266;2023-07-28T08:10:55;99756.22;;;18.92;70.31
23281;BME280;11809;56.390;-3.266;2023-07-28T08:13:22;99755.38;;;18.91;70.12
23281;BME280;11809;56.390;-3.266;2023-07-28T08:15:50;99748.22;;;18.92;70.13
23281;BME280;11809;56.390;-3.266;2023-07-28T08:18:17;99747.22;;;18.93;69.81
23281;BME280;11809;56.390;-3.266;2023-07-28T08:20:44;99749.78;;;18.94;69.89
23281;BME280;11809;56.390;-3.266;2023-07-28T08:23:11;99748.94;;;18.94;70.37
23281;BME280;11809;56.390;-3.266;2023-07-28T08:25:40;99748.94;;;18.94;70.13
23281;BME280;11809;56.390;-3.266;2023-07-28T08:28:07;99749.78;;;18.94;70.19
23281;BME280;11809;56.390;-3.266;2023-07-28T08:30:34;99739.97;;;18.95;70.11
23281;BME280;11809;56.390;-3.266;2023-07-28T08:33:02;99746.25;;;18.94;70.09
23281;BME280;11809;56.390;-3.266;2023-07-28T08:35:30;99741.91;;;18.93;69.95
23281;BME280;11809;56.390;-3.266;2023-07-28T08:37:59;99740.25;;;18.92;70.05
23281;BME280;11809;56.390;-3.266;2023-07-28T08:40:26;99746.38;;;18.92;70.04
23281;BME280;11809;56.390;-3.266;2023-07-28T08:42:54;99747.22;;;18.93;70.14
23281;BME280;11809;56.390;-3.266;2023-07-28T08:45:22;99736.56;;;18.93;70.12
23281;BME280;11809;56.390;-3.266;2023-07-28T08:47:50;99740.25;;;18.92;70.27
23281;BME280;11809;56.390;-3.266;2023-07-28T08:50:18;99741.06;;;18.92;70.16
23281;BME280;11809;56.390;-3.266;2023-07-28T08:52:45;99741.06;;;18.92;70.05
23281;BME280;11809;56.390;-3.266;2023-07-28T08:55:13;99755.38;;;18.91;70.25
23281;BME280;11809;56.390;-3.266;2023-07-28T08:57:40;99747.22;;;18.93;69.68
23281;BME280;11809;56.390;-3.266;2023-07-28T09:00:09;99751.69;;;18.92;70.20
23281;BME280;11809;56.390;-3.266;2023-07-28T09:02:37;99746.38;;;18.92;70.39
23281;BME280;11809;56.390;-3.266;2023-07-28T09:05:05;99757.75;;;18.94;69.79
23281;BME280;11809;56.390;-3.266;2023-07-28T09:07:36;99749.19;;;18.91;70.29
23281;BME280;11809;56.390;-3.266;2023-07-28T09:10:04;99743.88;;;18.91;70.32
23281;BME280;11809;56.390;-3.266;2023-07-28T09:12:32;99750.88;;;18.92;70.08
23281;BME280;11809;56.390;-3.266;2023-07-28T09:15:00;99753.66;;;18.90;70.33
23281;BME280;11809;56.390;-3.266;2023-07-28T09:17:31;99749.19;;;18.91;69.95
23281;BME280;11809;56.390;-3.266;2023-07-28T09:20:00;99739.38;;;18.91;70.04
23281;BME280;11809;56.390;-3.266;2023-07-28T09:22:30;99736.56;;;18.93;70.08
23281;BME280;11809;56.390;-3.266;2023-07-28T09:25:11;99730.97;;;18.96;69.94
23281;BME280;11809;56.390;-3.266;2023-07-28T09:27:38;99746.97;;;18.96;69.86
23281;BME280;11809;56.390;-3.266;2023-07-28T09:30:06;99742.50;;;19.06;69.57
23281;BME280;11809;56.390;-3.266;2023-07-28T09:32:34;99747.00;;;19.15;69.73
23281;BME280;11809;56.390;-3.266;2023-07-28T09:35:11;99742.53;;;19.15;69.38
23281;BME280;11809;56.390;-3.266;2023-07-28T09:37:41;99746.03;;;19.16;69.40
23281;BME280;11809;56.390;-3.266;2023-07-28T09:40:15;99741.41;;;19.18;69.37
23281;BME280;11809;56.390;-3.266;2023-07-28T09:42:45;99749.25;;;19.19;69.18
23281;BME280;11809;56.390;-3.266;2023-07-28T09:45:21;99742.38;;;19.17;69.10
23281;BME280;11809;56.390;-3.266;2023-07-28T09:47:51;99730.75;;;19.18;69.54
23281;BME280;11809;56.390;-3.266;2023-07-28T09:50:24;99733.41;;;19.18;69.00
23281;BME280;11809;56.390;-3.266;2023-07-28T09:52:54;99727.94;;;19.10;69.23
23281;BME280;11809;56.390;-3.266;2023-07-28T09:55:24;99728.47;;;19.04;69.33
23281;BME280;11809;56.390;-3.266;2023-07-28T09:57:54;99741.69;;;19.05;69.32
23281;BME280;11809;56.390;-3.266;2023-07-28T10:00:23;99731.03;;;19.05;69.26
23281;BME280;11809;56.390;-3.266;2023-07-28T10:02:50;99732.41;;;19.09;68.90
23281;BME280;11809;56.390;-3.266;2023-07-28T10:05:20;99726.25;;;19.09;69.03
23281;BME280;11809;56.390;-3.266;2023-07-28T10:07:48;99718.94;;;19.11;68.87
23281;BME280;11809;56.390;-3.266;2023-07-28T10:10:16;99728.50;;;19.13;69.28
23281;BME280;11809;56.390;-3.266;2023-07-28T10:12:49;99719.69;;;19.13;69.00
23281;BME280;11809;56.390;-3.266;2023-07-28T10:15:19;99721.34;;;19.14;68.98
23281;BME280;11809;56.390;-3.266;2023-07-28T10:17:51;99717.28;;;19.19;69.00
23281;BME280;11809;56.390;-3.266;2023-07-28T10:20:40;99710.56;;;19.25;68.84
23281;BME280;11809;56.390;-3.266;2023-07-28T10:25:42;99702.44;;;19.36;68.65
23281;BME280;11809;56.390;-3.266;2023-07-28T10:30:54;99701.75;;;19.34;68.52
23281;BME280;11809;56.390;-3.266;2023-07-28T10:33:36;99695.41;;;19.35;68.84
23281;BME280;11809;56.390;-3.266;2023-07-28T10:41:30;99681.28;;;19.34;68.64
23281;BME280;11809;56.390;-3.266;2023-07-28T10:43:57;99688.44;;;19.34;68.48
23281;BME280;11809;56.390;-3.266;2023-07-28T10:46:26;99691.78;;;19.36;68.63
23281;BME280;11809;56.390;-3.266;2023-07-28T10:48:54;99695.28;;;19.36;68.70
23281;BME280;11809;56.390;-3.266;2023-07-28T10:53:55;99682.81;;;19.37;67.98
23281;BME280;11809;56.390;-3.266;2023-07-28T10:56:23;99673.84;;;19.38;68.35
23281;BME280;11809;56.390;-3.266;2023-07-28T10:58:58;99668.53;;;19.38;69.00
23281;BME280;11809;56.390;-3.266;2023-07-28T11:01:39;99669.66;;;19.45;68.98
23281;BME280;11809;56.390;-3.266;2023-07-28T11:04:13;99669.06;;;19.51;69.49
23281;BME280;11809;56.390;-3.266;2023-07-28T11:06:45;99666.28;;;19.53;69.85
23281;BME280;11809;56.390;-3.266;2023-07-28T11:09:14;99671.19;;;19.57;69.45
23281;BME280;11809;56.390;-3.266;2023-07-28T11:11:43;99668.25;;;19.60;69.97
23281;BME280;11809;56.390;-3.266;2023-07-28T11:14:15;99661.22;;;19.59;69.20
23281;BME280;11809;56.390;-3.266;2023-07-28T11:16:42;99663.59;;;19.62;69.25
23281;BME280;11809;56.390;-3.266;2023-07-28T11:19:12;99663.59;;;19.62;69.40
23281;BME280;11809;56.390;-3.266;2023-07-28T11:21:44;99658.44;;;19.61;69.43
23281;BME280;11809;56.390;-3.266;2023-07-28T11:24:11;99649.84;;;19.67;69.22
23281;BME280;11809;56.390;-3.266;2023-07-28T11:26:39;99645.50;;;19.66;69.84
23281;BME280;11809;56.390;-3.266;2023-07-28T11:29:07;99658.00;;;19.65;69.29
23281;BME280;11809;56.390;-3.266;2023-07-28T11:31:36;99659.25;;;19.71;69.01
23281;BME280;11809;56.390;-3.266;2023-07-28T11:34:16;99650.56;;;19.69;68.96
23281;BME280;11809;56.390;-3.266;2023-07-28T11:36:43;99653.34;;;19.67;68.91
23281;BME280;11809;56.390;-3.266;2023-07-28T11:39:11;99659.53;;;19.68;68.92
23281;BME280;11809;56.390;-3.266;2023-07-28T11:41:39;99656.00;;;19.67;68.92
23281;BME280;11809;56.390;-3.266;2023-07-28T11:44:07;99651.69;;;19.66;68.71
23281;BME280;11809;56.390;-3.266;2023-07-28T11:51:42;99654.31;;;19.76;69.70
23281;BME280;11809;56.390;-3.266;2023-07-28T11:54:18;99645.88;;;19.80;69.14
23281;BME280;11809;56.390;-3.266;2023-07-28T11:56:49;99641.25;;;19.82;68.60
23281;BME280;11809;56.390;-3.266;2023-07-28T11:59:20;99641.97;;;19.84;68.57
23281;BME280;11809;56.390;-3.266;2023-07-28T12:01:55;99652.63;;;19.84;68.49
23281;BME280;11809;56.390;-3.266;2023-07-28T12:04:30;99637.47;;;19.85;68.26
23281;BME280;11809;56.390;-3.266;2023-07-28T12:09:31;99649.38;;;19.90;68.38
23281;BME280;11809;56.390;-3.266;2023-07-28T12:11:58;99636.75;;;19.92;67.86
23281;BME280;11809;56.390;-3.266;2023-07-28T12:14:34;99645.13;;;19.98;68.21
23281;BME280;11809;56.390;-3.266;2023-07-28T12:17:16;99645.25;;;20.06;68.67
23281;BME280;11809;56.390;-3.266;2023-07-28T12:22:29;99653.81;;;20.09;67.98
23281;BME280;11809;56.390;-3.266;2023-07-28T12:24:57;99646.34;;;20.13;68.09
23281;BME280;11809;56.390;-3.266;2023-07-28T12:27:24;99642.81;;;20.12;67.65
23281;BME280;11809;56.390;-3.266;2023-07-28T12:30:13;99647.75;;;20.07;68.27
23281;BME280;11809;56.390;-3.266;2023-07-28T12:32:43;99644.25;;;20.07;67.45
23281;BME280;11809;56.390;-3.266;2023-07-28T12:35:14;99646.22;;;20.14;67.71
23281;BME280;11809;56.390;-3.266;2023-07-28T12:37:41;99644.06;;;20.18;67.06
23281;BME280;11809;56.390;-3.266;2023-07-28T12:40:11;99642.25;;;20.18;67.08
23281;BME280;11809;56.390;-3.266;2023-07-28T12:42:42;99647.47;;;20.20;67.25
23281;BME280;11809;56.390;-3.266;2023-07-28T12:45:12;99640.44;;;20.19;67.51
23281;BME280;11809;56.390;-3.266;2023-07-28T12:47:43;99641.41;;;20.18;67.56
23281;BME280;11809;56.390;-3.266;2023-07-28T12:50:10;99639.88;;;20.25;67.73
23281;BME280;11809;56.390;-3.266;2023-07-28T12:52:40;99630.59;;;20.29;67.09
23281;BME280;11809;56.390;-3.266;2023-07-28T12:55:11;99633.25;;;20.29;67.10
23281;BME280;11809;56.390;-3.266;2023-07-28T12:57:41;99634.81;;;20.22;67.26
23281;BME280;11809;56.390;-3.266;2023-07-28T13:00:09;99632.72;;;20.16;67.17
23281;BME280;11809;56.390;-3.266;2023-07-28T13:02:43;99625.69;;;20.15;67.37
23281;BME280;11809;56.390;-3.266;2023-07-28T13:05:12;99626.97;;;20.11;67.35
23281;BME280;11809;56.390;-3.266;2023-07-28T13:07:39;99629.81;;;20.09;67.82
23281;BME280;11809;56.390;-3.266;2023-07-28T13:10:13;99634.97;;;20.11;67.54
23281;BME280;11809;56.390;-3.266;2023-07-28T13:12:43;99636.13;;;20.08;67.41
23281;BME280;11809;56.390;-3.266;2023-07-28T13:15:13;99635.97;;;20.10;67.26
23281;BME280;11809;56.390;-3.266;2023-07-28T13:17:40;99634.31;;;20.09;67.32
23281;BME280;11809;56.390;-3.266;2023-07-28T13:20:07;99629.94;;;20.08;67.38
23281;BME280;11809;56.390;-3.266;2023-07-28T13:22:36;99635.16;;;20.09;67.68
23281;BME280;11809;56.390;-3.266;2023-07-28T13:25:04;99628.13;;;20.08;67.33
23281;BME280;11809;56.390;-3.266;2023-07-28T13:27:31;99629.81;;;20.09;67.38